Gulf — V2BB5 — position and weather

sailwx.info

Track history (hours):
 
Tides and Currents Weather Stations Pressure Air Temp Water Temp Dewpoint Dewpoint Depression Visibility Wind Speed Wind Dir Waves Ship Positions

Gulf

Last reported at 2015-Mar-20 07:11 UTC. Time now 2015-Mar-27 03:41 UTC.
Position N 41°02' E 029°00'.

Length 96 m; draft 3.3 m.

Type: Cargo ship. MMSI: 304320000.

Date/timePositionNaut miles runAvg speedWind from/ knotsBaromVisibWave heightAir tempDewpointWater temp
2015-Mar-20 07:11N 41°02' E 029°00'4 6.9
2015-Mar-20 06:32N 40°57' E 028°59'7 6.9
2015-Mar-20 05:31N 40°50' E 028°60'5 4.8
2015-Mar-20 04:27N 40°45' E 028°59'1 1.5
2015-Mar-20 03:33N 40°46' E 028°60'2 1.5
2015-Mar-20 02:32N 40°48' E 029°00'1 1.1
2015-Mar-20 01:29N 40°49' E 029°01'1 0.9
2015-Mar-20 00:33N 40°48' E 029°00'8 8.4
2015-Mar-19 23:33N 40°49' E 028°49'  
Track history (hours):
 
Tides and Currents Weather Stations Pressure Air Temp Water Temp Dewpoint Dewpoint Depression Visibility Wind Speed Wind Dir Waves Ship Positions

Gulf

Last reported at 2015-Mar-20 07:11 UTC. Time now 2015-Mar-27 03:41 UTC.
Position N 41°02' E 029°00'.

Length 96 m; draft 3.3 m.

Type: Cargo ship. MMSI: 304320000.

Date/timePositionNaut miles runAvg speedWind from/ knotsBaromVisibWave heightAir tempDewpointWater temp
2015-Mar-20 07:11N 41°02' E 029°00'4 6.9
2015-Mar-20 06:32N 40°57' E 028°59'7 6.9
2015-Mar-20 05:31N 40°50' E 028°60'5 4.8
2015-Mar-20 04:27N 40°45' E 028°59'1 1.5
2015-Mar-20 03:33N 40°46' E 028°60'2 1.5
2015-Mar-20 02:32N 40°48' E 029°00'1 1.1
2015-Mar-20 01:29N 40°49' E 029°01'1 0.9
2015-Mar-20 00:33N 40°48' E 029°00'8 8.4
2015-Mar-19 23:33N 40°49' E 028°49'  

Dump ship's entire track history